Detall de PIREP

Printer-friendly versionPDF version

[2014/09/22 11:18:00]
Flight IATA:CT3111
Pilot Number:011
Company ICAO:CAT
Aircraft Type:B738/F
PAX:160
Departing Airport: LEPA
Destination Airport: LEBL
Alternate Airport:LEPA
Online: VATSIM
Route:ESPOR W2 NEPAL
Flight Level:F180
No Slew and time accel
No pause
Crash detect
Detect pilot in Cockpit between each 30 and 45 minutes
11:18 Zero fuel Weight: 135990 Lbs, Fuel Weight: 10348 Lbs
11:18 VATSIM:LEPA 221100Z 06017KT 9999 FEW018 FEW020CB 25/19 Q1013 BECMG TSRA SCT020CB
11:18 VATSIM:LEBL 221100Z 07007KT 040V100 9999 -DZ FEW017 SCT033 BKN045 22/18 Q1015 NOSIG
11:19 Parking Brakes off
11:31 Take-off
11:31 Take off Weight: 145540 Lbs
11:31 Wind: 073º @ 012 Knots Heading: 059º
11:31 POS N39º 32´ 54´´ E002º 44´ 49´´
11:31 Flaps:5 at 164 Knots
11:32 Gear Up: 178 Knots
11:34 Flaps:4 at 252 Knots
11:34 Flaps:3 at 252 Knots
11:34 Flaps:2 at 251 Knots
11:34 Flaps:1 at252 Knots
11:34 Flaps:0 at 251 Knots
11:38 TOC
11:38 Fuel Weight: 7601 Lb
11:46 Wind:047º@020 Knots Heading: 346º Ground Speed: 365 Knots Altitude 18051 ft
11:46 TOD
11:46 Fuel Weight: 6806 Lb
11:54 Flaps:1 at 251 Knots
11:54 Flaps:2 at 251 Knots
11:54 Flaps:3 at 250 Knots
11:54 Flaps:4 at 248 Knots
11:54 Flaps:5 at 228 Knots
11:55 Flaps:6 at 191 Knots
11:55 Gear Down: 190 Knots
11:57 Flaps:7 at 147 Knots
11:57 Flaps:8 at 144 Knots
12:01 Wind:072º@008 Knots Heading: 065º Ground Speed: 142 Knots Altitude 1423 ft
12:03 TouchDown:Rate -139 ft/min Speed: 126 Knots
12:03 VATSIM:LEBL 221130Z 07008KT 9999 -DZ FEW019 SCT035 BKN050 22/18 Q1015 NOSIG
12:03 Land
12:03 Wind:072º@008 Knots
12:03 Heading: 046º
12:03 Flight Duration: 00:32
12:03 Landing Weight: 141441 Lbs
12:03 POS N41º 17´ 25´´ E002º 05´ 52´´
12:09 Parking brakes on
12:09 Block to Block Duration: 00:50
12:09 Final Fuel: 5022 Lbls
12:09 Spent Fuel: 5326 Lbls
12:09 Flight Length: 149 NM
12:09 TOD Land Length: 69 NM

Exportar CSV

Powered by Drupal - Modified by Danger4k